sensor_id;sensor_type;location;lat;lon;timestamp;P1;durP1;ratioP1;P2;durP2;ratioP2
59273;SDS011;45044;41.572;24.730;2022-11-20T00:01:13;7.38;;;3.10;;
59273;SDS011;45044;41.572;24.730;2022-11-20T00:03:42;12.90;;;5.47;;
59273;SDS011;45044;41.572;24.730;2022-11-20T00:06:10;7.22;;;3.50;;
59273;SDS011;45044;41.572;24.730;2022-11-20T00:08:39;14.30;;;5.38;;
59273;SDS011;45044;41.572;24.730;2022-11-20T00:11:07;8.57;;;3.40;;
59273;SDS011;45044;41.572;24.730;2022-11-20T00:13:44;7.38;;;3.03;;
59273;SDS011;45044;41.572;24.730;2022-11-20T00:16:14;7.25;;;3.25;;
59273;SDS011;45044;41.572;24.730;2022-11-20T00:18:43;30.25;;;12.20;;
59273;SDS011;45044;41.572;24.730;2022-11-20T00:21:12;8.25;;;2.78;;
59273;SDS011;45044;41.572;24.730;2022-11-20T00:23:40;8.50;;;2.60;;
59273;SDS011;45044;41.572;24.730;2022-11-20T00:26:10;6.85;;;3.13;;
59273;SDS011;45044;41.572;24.730;2022-11-20T00:28:39;9.48;;;3.33;;
59273;SDS011;45044;41.572;24.730;2022-11-20T00:31:07;6.15;;;2.90;;
59273;SDS011;45044;41.572;24.730;2022-11-20T00:33:35;4.32;;;2.17;;
59273;SDS011;45044;41.572;24.730;2022-11-20T00:36:07;4.85;;;2.25;;
59273;SDS011;45044;41.572;24.730;2022-11-20T00:38:35;6.45;;;2.97;;
59273;SDS011;45044;41.572;24.730;2022-11-20T00:41:06;7.90;;;3.38;;
59273;SDS011;45044;41.572;24.730;2022-11-20T00:43:35;6.57;;;2.75;;
59273;SDS011;45044;41.572;24.730;2022-11-20T00:46:07;5.95;;;2.97;;
59273;SDS011;45044;41.572;24.730;2022-11-20T00:48:35;7.70;;;3.00;;
59273;SDS011;45044;41.572;24.730;2022-11-20T00:51:02;7.65;;;3.92;;
59273;SDS011;45044;41.572;24.730;2022-11-20T00:53:29;6.25;;;2.50;;
59273;SDS011;45044;41.572;24.730;2022-11-20T00:56:00;5.82;;;2.35;;
59273;SDS011;45044;41.572;24.730;2022-11-20T00:58:30;18.10;;;8.20;;
59273;SDS011;45044;41.572;24.730;2022-11-20T01:01:00;7.40;;;2.53;;
59273;SDS011;45044;41.572;24.730;2022-11-20T01:03:33;4.90;;;2.10;;
59273;SDS011;45044;41.572;24.730;2022-11-20T01:06:02;6.47;;;2.53;;
59273;SDS011;45044;41.572;24.730;2022-11-20T01:08:31;22.10;;;9.20;;
59273;SDS011;45044;41.572;24.730;2022-11-20T01:11:03;7.20;;;2.85;;
59273;SDS011;45044;41.572;24.730;2022-11-20T01:13:32;10.73;;;3.30;;
59273;SDS011;45044;41.572;24.730;2022-11-20T01:16:15;9.18;;;2.95;;
59273;SDS011;45044;41.572;24.730;2022-11-20T01:18:43;4.75;;;2.58;;
59273;SDS011;45044;41.572;24.730;2022-11-20T01:21:14;5.88;;;2.35;;
59273;SDS011;45044;41.572;24.730;2022-11-20T01:23:43;6.40;;;2.83;;
59273;SDS011;45044;41.572;24.730;2022-11-20T01:26:12;4.68;;;2.38;;
59273;SDS011;45044;41.572;24.730;2022-11-20T01:28:40;8.75;;;3.35;;
59273;SDS011;45044;41.572;24.730;2022-11-20T01:31:41;6.65;;;2.40;;
59273;SDS011;45044;41.572;24.730;2022-11-20T01:34:06;8.27;;;3.70;;
59273;SDS011;45044;41.572;24.730;2022-11-20T01:36:36;3.30;;;2.08;;
59273;SDS011;45044;41.572;24.730;2022-11-20T01:39:05;5.88;;;2.10;;
59273;SDS011;45044;41.572;24.730;2022-11-20T01:41:33;5.45;;;2.10;;
59273;SDS011;45044;41.572;24.730;2022-11-20T01:44:21;4.82;;;1.92;;
59273;SDS011;45044;41.572;24.730;2022-11-20T01:47:08;7.90;;;2.75;;
59273;SDS011;45044;41.572;24.730;2022-11-20T01:49:48;16.85;;;3.08;;
59273;SDS011;45044;41.572;24.730;2022-11-20T01:52:24;5.78;;;2.13;;
59273;SDS011;45044;41.572;24.730;2022-11-20T01:55:10;6.03;;;2.83;;
59273;SDS011;45044;41.572;24.730;2022-11-20T01:57:41;6.00;;;2.27;;
59273;SDS011;45044;41.572;24.730;2022-11-20T02:00:11;4.13;;;2.38;;
59273;SDS011;45044;41.572;24.730;2022-11-20T02:02:41;7.80;;;2.40;;
59273;SDS011;45044;41.572;24.730;2022-11-20T02:05:34;10.18;;;2.45;;
59273;SDS011;45044;41.572;24.730;2022-11-20T02:08:02;62.72;;;21.77;;
59273;SDS011;45044;41.572;24.730;2022-11-20T02:10:30;10.07;;;2.58;;
59273;SDS011;45044;41.572;24.730;2022-11-20T02:12:58;8.30;;;3.70;;
59273;SDS011;45044;41.572;24.730;2022-11-20T02:15:44;11.05;;;4.40;;
59273;SDS011;45044;41.572;24.730;2022-11-20T02:18:12;3.70;;;2.05;;
59273;SDS011;45044;41.572;24.730;2022-11-20T02:20:42;4.07;;;1.88;;
59273;SDS011;45044;41.572;24.730;2022-11-20T02:23:25;6.88;;;2.10;;
59273;SDS011;45044;41.572;24.730;2022-11-20T02:26:00;6.30;;;1.90;;
59273;SDS011;45044;41.572;24.730;2022-11-20T02:28:30;7.47;;;4.32;;
59273;SDS011;45044;41.572;24.730;2022-11-20T02:30:57;6.60;;;2.30;;
59273;SDS011;45044;41.572;24.730;2022-11-20T02:33:24;5.82;;;2.38;;
59273;SDS011;45044;41.572;24.730;2022-11-20T02:35:58;6.85;;;2.60;;
59273;SDS011;45044;41.572;24.730;2022-11-20T02:38:25;6.22;;;2.28;;
59273;SDS011;45044;41.572;24.730;2022-11-20T02:40:52;5.72;;;2.17;;
59273;SDS011;45044;41.572;24.730;2022-11-20T02:43:21;6.28;;;2.22;;
59273;SDS011;45044;41.572;24.730;2022-11-20T02:45:49;12.63;;;4.30;;
59273;SDS011;45044;41.572;24.730;2022-11-20T02:48:16;6.20;;;2.10;;
59273;SDS011;45044;41.572;24.730;2022-11-20T02:50:42;6.10;;;3.75;;
59273;SDS011;45044;41.572;24.730;2022-11-20T02:53:09;4.32;;;1.90;;
59273;SDS011;45044;41.572;24.730;2022-11-20T02:55:36;7.82;;;2.30;;
59273;SDS011;45044;41.572;24.730;2022-11-20T02:58:03;8.95;;;3.25;;
59273;SDS011;45044;41.572;24.730;2022-11-20T03:00:29;3.20;;;1.30;;
59273;SDS011;45044;41.572;24.730;2022-11-20T03:02:56;5.85;;;2.15;;
59273;SDS011;45044;41.572;24.730;2022-11-20T03:05:23;2.42;;;1.67;;
59273;SDS011;45044;41.572;24.730;2022-11-20T03:07:54;4.22;;;2.05;;
59273;SDS011;45044;41.572;24.730;2022-11-20T03:10:21;6.43;;;2.10;;
59273;SDS011;45044;41.572;24.730;2022-11-20T03:12:52;4.20;;;2.15;;
59273;SDS011;45044;41.572;24.730;2022-11-20T03:15:19;5.97;;;2.15;;
59273;SDS011;45044;41.572;24.730;2022-11-20T03:17:46;4.45;;;2.20;;
59273;SDS011;45044;41.572;24.730;2022-11-20T03:20:13;5.78;;;2.25;;
59273;SDS011;45044;41.572;24.730;2022-11-20T03:22:39;4.65;;;1.83;;
59273;SDS011;45044;41.572;24.730;2022-11-20T03:25:06;6.97;;;3.42;;
59273;SDS011;45044;41.572;24.730;2022-11-20T03:27:33;5.93;;;2.40;;
59273;SDS011;45044;41.572;24.730;2022-11-20T03:30:00;3.40;;;2.10;;
59273;SDS011;45044;41.572;24.730;2022-11-20T03:32:27;7.05;;;3.08;;
59273;SDS011;45044;41.572;24.730;2022-11-20T03:34:54;6.30;;;2.60;;
59273;SDS011;45044;41.572;24.730;2022-11-20T03:37:21;5.13;;;1.90;;
59273;SDS011;45044;41.572;24.730;2022-11-20T03:39:47;4.68;;;2.40;;
59273;SDS011;45044;41.572;24.730;2022-11-20T03:42:14;7.93;;;2.35;;
59273;SDS011;45044;41.572;24.730;2022-11-20T03:44:59;5.47;;;2.50;;
59273;SDS011;45044;41.572;24.730;2022-11-20T03:47:26;6.47;;;2.95;;
59273;SDS011;45044;41.572;24.730;2022-11-20T03:49:52;5.35;;;2.70;;
59273;SDS011;45044;41.572;24.730;2022-11-20T03:52:19;7.18;;;3.97;;
59273;SDS011;45044;41.572;24.730;2022-11-20T03:54:46;11.45;;;6.20;;
59273;SDS011;45044;41.572;24.730;2022-11-20T03:57:13;4.30;;;2.38;;
59273;SDS011;45044;41.572;24.730;2022-11-20T03:59:40;5.68;;;2.80;;
59273;SDS011;45044;41.572;24.730;2022-11-20T04:02:06;6.32;;;2.50;;
59273;SDS011;45044;41.572;24.730;2022-11-20T04:04:33;10.65;;;4.40;;
59273;SDS011;45044;41.572;24.730;2022-11-20T04:07:00;8.77;;;3.95;;
59273;SDS011;45044;41.572;24.730;2022-11-20T04:09:27;7.35;;;3.40;;
59273;SDS011;45044;41.572;24.730;2022-11-20T04:11:53;9.35;;;4.55;;
59273;SDS011;45044;41.572;24.730;2022-11-20T04:14:20;6.78;;;3.10;;
59273;SDS011;45044;41.572;24.730;2022-11-20T04:16:47;5.88;;;2.45;;
59273;SDS011;45044;41.572;24.730;2022-11-20T04:19:14;10.65;;;3.35;;
59273;SDS011;45044;41.572;24.730;2022-11-20T04:21:43;6.32;;;2.40;;
59273;SDS011;45044;41.572;24.730;2022-11-20T04:24:10;6.60;;;3.00;;
59273;SDS011;45044;41.572;24.730;2022-11-20T04:26:38;4.57;;;2.70;;
59273;SDS011;45044;41.572;24.730;2022-11-20T04:29:06;4.32;;;2.10;;
59273;SDS011;45044;41.572;24.730;2022-11-20T04:31:35;6.53;;;2.40;;
59273;SDS011;45044;41.572;24.730;2022-11-20T04:34:03;5.55;;;2.38;;
59273;SDS011;45044;41.572;24.730;2022-11-20T04:36:32;7.00;;;3.10;;
59273;SDS011;45044;41.572;24.730;2022-11-20T04:39:00;4.55;;;2.20;;
59273;SDS011;45044;41.572;24.730;2022-11-20T04:41:33;7.88;;;3.00;;
59273;SDS011;45044;41.572;24.730;2022-11-20T04:44:03;5.20;;;2.22;;
59273;SDS011;45044;41.572;24.730;2022-11-20T04:46:33;4.43;;;2.15;;
59273;SDS011;45044;41.572;24.730;2022-11-20T04:49:10;5.97;;;2.15;;
59273;SDS011;45044;41.572;24.730;2022-11-20T04:51:37;5.70;;;2.28;;
59273;SDS011;45044;41.572;24.730;2022-11-20T04:54:04;4.72;;;2.35;;
59273;SDS011;45044;41.572;24.730;2022-11-20T04:56:31;5.60;;;2.22;;
59273;SDS011;45044;41.572;24.730;2022-11-20T04:59:01;4.10;;;2.20;;
59273;SDS011;45044;41.572;24.730;2022-11-20T05:01:28;4.53;;;2.25;;
59273;SDS011;45044;41.572;24.730;2022-11-20T05:03:55;5.57;;;1.77;;
59273;SDS011;45044;41.572;24.730;2022-11-20T05:06:22;7.15;;;3.20;;
59273;SDS011;45044;41.572;24.730;2022-11-20T05:08:49;5.43;;;2.10;;
59273;SDS011;45044;41.572;24.730;2022-11-20T05:11:17;6.70;;;2.60;;
59273;SDS011;45044;41.572;24.730;2022-11-20T05:13:46;4.25;;;2.15;;
59273;SDS011;45044;41.572;24.730;2022-11-20T05:16:24;7.43;;;2.00;;
59273;SDS011;45044;41.572;24.730;2022-11-20T05:18:52;5.28;;;2.20;;
59273;SDS011;45044;41.572;24.730;2022-11-20T05:21:20;5.60;;;2.20;;
59273;SDS011;45044;41.572;24.730;2022-11-20T05:23:48;4.57;;;1.90;;
59273;SDS011;45044;41.572;24.730;2022-11-20T05:26:18;3.95;;;1.98;;
59273;SDS011;45044;41.572;24.730;2022-11-20T05:28:50;5.40;;;2.20;;
59273;SDS011;45044;41.572;24.730;2022-11-20T05:31:19;4.57;;;2.10;;
59273;SDS011;45044;41.572;24.730;2022-11-20T05:33:53;9.23;;;2.97;;
59273;SDS011;45044;41.572;24.730;2022-11-20T05:36:20;6.60;;;2.47;;
59273;SDS011;45044;41.572;24.730;2022-11-20T05:38:47;4.72;;;2.05;;
59273;SDS011;45044;41.572;24.730;2022-11-20T05:41:17;6.07;;;2.53;;
59273;SDS011;45044;41.572;24.730;2022-11-20T05:43:46;4.82;;;2.00;;
59273;SDS011;45044;41.572;24.730;2022-11-20T05:46:14;5.25;;;1.70;;
59273;SDS011;45044;41.572;24.730;2022-11-20T05:48:45;7.68;;;2.33;;
59273;SDS011;45044;41.572;24.730;2022-11-20T05:51:14;4.80;;;2.42;;
59273;SDS011;45044;41.572;24.730;2022-11-20T05:53:43;5.60;;;2.35;;
59273;SDS011;45044;41.572;24.730;2022-11-20T05:56:18;4.03;;;1.73;;
59273;SDS011;45044;41.572;24.730;2022-11-20T05:58:46;4.47;;;2.15;;
59273;SDS011;45044;41.572;24.730;2022-11-20T06:01:17;10.02;;;4.68;;
59273;SDS011;45044;41.572;24.730;2022-11-20T06:03:46;13.43;;;4.57;;
59273;SDS011;45044;41.572;24.730;2022-11-20T06:06:14;6.07;;;2.67;;
59273;SDS011;45044;41.572;24.730;2022-11-20T06:08:42;14.60;;;3.78;;
59273;SDS011;45044;41.572;24.730;2022-11-20T06:11:10;7.18;;;3.38;;
59273;SDS011;45044;41.572;24.730;2022-11-20T06:13:38;7.40;;;3.13;;
59273;SDS011;45044;41.572;24.730;2022-11-20T06:16:08;8.40;;;3.35;;
59273;SDS011;45044;41.572;24.730;2022-11-20T06:18:35;10.35;;;3.95;;
59273;SDS011;45044;41.572;24.730;2022-11-20T06:21:04;12.35;;;5.40;;
59273;SDS011;45044;41.572;24.730;2022-11-20T06:23:33;6.65;;;3.30;;
59273;SDS011;45044;41.572;24.730;2022-11-20T06:26:01;9.20;;;4.32;;
59273;SDS011;45044;41.572;24.730;2022-11-20T06:28:29;6.80;;;2.35;;
59273;SDS011;45044;41.572;24.730;2022-11-20T06:30:56;6.05;;;2.33;;
59273;SDS011;45044;41.572;24.730;2022-11-20T06:33:24;4.55;;;2.03;;
59273;SDS011;45044;41.572;24.730;2022-11-20T06:35:51;5.60;;;3.05;;
59273;SDS011;45044;41.572;24.730;2022-11-20T06:38:25;6.32;;;3.83;;
59273;SDS011;45044;41.572;24.730;2022-11-20T06:40:53;7.38;;;3.45;;
59273;SDS011;45044;41.572;24.730;2022-11-20T06:43:20;8.23;;;4.53;;
59273;SDS011;45044;41.572;24.730;2022-11-20T06:45:54;7.82;;;3.15;;
59273;SDS011;45044;41.572;24.730;2022-11-20T06:48:22;6.65;;;3.60;;
59273;SDS011;45044;41.572;24.730;2022-11-20T06:50:50;5.75;;;2.67;;
59273;SDS011;45044;41.572;24.730;2022-11-20T06:53:16;8.05;;;3.22;;
59273;SDS011;45044;41.572;24.730;2022-11-20T06:56:08;6.40;;;2.95;;
59273;SDS011;45044;41.572;24.730;2022-11-20T06:59:18;6.72;;;2.35;;
59273;SDS011;45044;41.572;24.730;2022-11-20T07:02:28;7.00;;;2.70;;
59273;SDS011;45044;41.572;24.730;2022-11-20T07:04:58;6.97;;;2.90;;
59273;SDS011;45044;41.572;24.730;2022-11-20T07:07:25;8.80;;;2.90;;
59273;SDS011;45044;41.572;24.730;2022-11-20T07:09:52;8.57;;;2.63;;
59273;SDS011;45044;41.572;24.730;2022-11-20T07:12:18;8.45;;;2.28;;
59273;SDS011;45044;41.572;24.730;2022-11-20T07:14:45;4.55;;;2.47;;
59273;SDS011;45044;41.572;24.730;2022-11-20T07:17:12;9.75;;;2.83;;
59273;SDS011;45044;41.572;24.730;2022-11-20T07:19:39;6.90;;;2.30;;
59273;SDS011;45044;41.572;24.730;2022-11-20T07:22:05;6.97;;;2.63;;
59273;SDS011;45044;41.572;24.730;2022-11-20T07:24:32;8.93;;;3.63;;
59273;SDS011;45044;41.572;24.730;2022-11-20T07:26:59;7.30;;;2.75;;
59273;SDS011;45044;41.572;24.730;2022-11-20T07:29:25;8.98;;;3.30;;
59273;SDS011;45044;41.572;24.730;2022-11-20T07:32:35;9.82;;;4.05;;
59273;SDS011;45044;41.572;24.730;2022-11-20T07:35:46;8.15;;;4.38;;
59273;SDS011;45044;41.572;24.730;2022-11-20T07:38:56;14.60;;;5.13;;
59273;SDS011;45044;41.572;24.730;2022-11-20T07:58:33;11.25;;;4.00;;
59273;SDS011;45044;41.572;24.730;2022-11-20T08:01:19;7.10;;;2.58;;
59273;SDS011;45044;41.572;24.730;2022-11-20T08:03:46;5.75;;;2.53;;
59273;SDS011;45044;41.572;24.730;2022-11-20T08:06:13;8.50;;;2.33;;
59273;SDS011;45044;41.572;24.730;2022-11-20T08:08:41;9.40;;;2.22;;
59273;SDS011;45044;41.572;24.730;2022-11-20T08:11:08;14.13;;;4.63;;
59273;SDS011;45044;41.572;24.730;2022-11-20T08:13:54;8.80;;;2.70;;
59273;SDS011;45044;41.572;24.730;2022-11-20T08:19:06;8.60;;;2.88;;
59273;SDS011;45044;41.572;24.730;2022-11-20T08:21:33;8.65;;;2.60;;
59273;SDS011;45044;41.572;24.730;2022-11-20T08:24:03;10.77;;;3.30;;
59273;SDS011;45044;41.572;24.730;2022-11-20T08:26:31;10.77;;;3.15;;
59273;SDS011;45044;41.572;24.730;2022-11-20T08:29:04;10.10;;;2.97;;
59273;SDS011;45044;41.572;24.730;2022-11-20T08:31:31;11.60;;;3.00;;
59273;SDS011;45044;41.572;24.730;2022-11-20T08:33:59;9.90;;;3.33;;
59273;SDS011;45044;41.572;24.730;2022-11-20T08:36:25;13.77;;;4.40;;
59273;SDS011;45044;41.572;24.730;2022-11-20T08:38:53;9.85;;;2.58;;
59273;SDS011;45044;41.572;24.730;2022-11-20T08:41:21;11.60;;;3.15;;
59273;SDS011;45044;41.572;24.730;2022-11-20T08:44:04;9.18;;;2.83;;
59273;SDS011;45044;41.572;24.730;2022-11-20T08:46:34;12.10;;;3.95;;
59273;SDS011;45044;41.572;24.730;2022-11-20T08:49:05;10.00;;;3.70;;
59273;SDS011;45044;41.572;24.730;2022-11-20T08:51:32;11.20;;;3.80;;
59273;SDS011;45044;41.572;24.730;2022-11-20T08:53:59;10.10;;;2.65;;
59273;SDS011;45044;41.572;24.730;2022-11-20T08:56:27;15.23;;;3.80;;
59273;SDS011;45044;41.572;24.730;2022-11-20T08:58:54;11.57;;;3.40;;
59273;SDS011;45044;41.572;24.730;2022-11-20T09:01:41;15.70;;;3.35;;
59273;SDS011;45044;41.572;24.730;2022-11-20T09:04:07;17.08;;;4.50;;
59273;SDS011;45044;41.572;24.730;2022-11-20T09:06:34;8.82;;;2.67;;
59273;SDS011;45044;41.572;24.730;2022-11-20T09:09:01;7.88;;;2.60;;
59273;SDS011;45044;41.572;24.730;2022-11-20T09:11:32;8.88;;;3.58;;
59273;SDS011;45044;41.572;24.730;2022-11-20T09:13:59;8.52;;;2.72;;
59273;SDS011;45044;41.572;24.730;2022-11-20T09:16:26;9.10;;;2.50;;
59273;SDS011;45044;41.572;24.730;2022-11-20T09:18:53;9.82;;;3.30;;
59273;SDS011;45044;41.572;24.730;2022-11-20T09:21:47;9.95;;;3.97;;
59273;SDS011;45044;41.572;24.730;2022-11-20T09:24:14;11.85;;;4.05;;
59273;SDS011;45044;41.572;24.730;2022-11-20T09:26:40;9.73;;;3.28;;
59273;SDS011;45044;41.572;24.730;2022-11-20T09:29:07;12.43;;;3.45;;
59273;SDS011;45044;41.572;24.730;2022-11-20T09:31:34;14.18;;;5.18;;
59273;SDS011;45044;41.572;24.730;2022-11-20T09:34:00;9.27;;;2.47;;
59273;SDS011;45044;41.572;24.730;2022-11-20T09:36:27;10.90;;;3.03;;
59273;SDS011;45044;41.572;24.730;2022-11-20T09:38:54;12.63;;;3.38;;
59273;SDS011;45044;41.572;24.730;2022-11-20T09:44:20;13.95;;;4.72;;
59273;SDS011;45044;41.572;24.730;2022-11-20T09:47:02;18.60;;;4.28;;
59273;SDS011;45044;41.572;24.730;2022-11-20T09:50:06;12.75;;;2.80;;
59273;SDS011;45044;41.572;24.730;2022-11-20T09:53:01;16.02;;;3.13;;
59273;SDS011;45044;41.572;24.730;2022-11-20T09:55:31;14.18;;;3.15;;
59273;SDS011;45044;41.572;24.730;2022-11-20T09:57:58;10.98;;;3.38;;
59273;SDS011;45044;41.572;24.730;2022-11-20T10:00:26;16.05;;;4.25;;
59273;SDS011;45044;41.572;24.730;2022-11-20T10:05:51;19.42;;;4.15;;
59273;SDS011;45044;41.572;24.730;2022-11-20T10:11:21;12.20;;;3.78;;
59273;SDS011;45044;41.572;24.730;2022-11-20T10:14:05;12.20;;;3.75;;
59273;SDS011;45044;41.572;24.730;2022-11-20T10:25:13;18.15;;;4.13;;
59273;SDS011;45044;41.572;24.730;2022-11-20T10:30:43;14.60;;;4.45;;
59273;SDS011;45044;41.572;24.730;2022-11-20T10:33:17;12.27;;;2.78;;
59273;SDS011;45044;41.572;24.730;2022-11-20T10:40:53;11.50;;;3.08;;
59273;SDS011;45044;41.572;24.730;2022-11-20T10:43:46;11.25;;;2.67;;
59273;SDS011;45044;41.572;24.730;2022-11-20T10:46:17;16.30;;;3.15;;
59273;SDS011;45044;41.572;24.730;2022-11-20T10:48:48;16.83;;;3.45;;
59273;SDS011;45044;41.572;24.730;2022-11-20T10:54:19;13.13;;;3.20;;
59273;SDS011;45044;41.572;24.730;2022-11-20T10:57:01;17.73;;;3.67;;
59273;SDS011;45044;41.572;24.730;2022-11-20T10:59:50;11.15;;;2.78;;
59273;SDS011;45044;41.572;24.730;2022-11-20T11:02:39;16.55;;;3.75;;
59273;SDS011;45044;41.572;24.730;2022-11-20T11:08:02;13.18;;;2.83;;
59273;SDS011;45044;41.572;24.730;2022-11-20T11:10:55;30.63;;;9.10;;
59273;SDS011;45044;41.572;24.730;2022-11-20T11:13:26;14.05;;;3.53;;
59273;SDS011;45044;41.572;24.730;2022-11-20T11:15:54;17.30;;;3.78;;
59273;SDS011;45044;41.572;24.730;2022-11-20T11:18:26;16.35;;;4.40;;
59273;SDS011;45044;41.572;24.730;2022-11-20T11:21:00;13.23;;;2.78;;
59273;SDS011;45044;41.572;24.730;2022-11-20T11:25:57;12.30;;;3.67;;
59273;SDS011;45044;41.572;24.730;2022-11-20T11:28:25;13.25;;;3.50;;
59273;SDS011;45044;41.572;24.730;2022-11-20T11:30:54;13.32;;;3.80;;
59273;SDS011;45044;41.572;24.730;2022-11-20T11:33:26;14.43;;;3.88;;
59273;SDS011;45044;41.572;24.730;2022-11-20T11:35:58;13.00;;;3.30;;
59273;SDS011;45044;41.572;24.730;2022-11-20T11:38:42;15.80;;;3.25;;
59273;SDS011;45044;41.572;24.730;2022-11-20T11:41:17;16.48;;;4.82;;
59273;SDS011;45044;41.572;24.730;2022-11-20T11:43:51;18.52;;;4.50;;
59273;SDS011;45044;41.572;24.730;2022-11-20T11:46:39;15.10;;;3.53;;
59273;SDS011;45044;41.572;24.730;2022-11-20T11:49:19;17.65;;;3.03;;
59273;SDS011;45044;41.572;24.730;2022-11-20T11:54:23;19.38;;;5.63;;
59273;SDS011;45044;41.572;24.730;2022-11-20T11:56:55;14.43;;;3.78;;
59273;SDS011;45044;41.572;24.730;2022-11-20T11:59:51;12.52;;;3.28;;
59273;SDS011;45044;41.572;24.730;2022-11-20T12:13:02;15.52;;;3.22;;
59273;SDS011;45044;41.572;24.730;2022-11-20T12:15:38;15.90;;;3.00;;
59273;SDS011;45044;41.572;24.730;2022-11-20T12:18:14;16.77;;;3.70;;
59273;SDS011;45044;41.572;24.730;2022-11-20T12:32:30;18.40;;;4.50;;
59273;SDS011;45044;41.572;24.730;2022-11-20T12:35:25;14.82;;;3.63;;
59273;SDS011;45044;41.572;24.730;2022-11-20T12:43:29;17.90;;;6.03;;
59273;SDS011;45044;41.572;24.730;2022-11-20T13:02:25;13.57;;;3.28;;
59273;SDS011;45044;41.572;24.730;2022-11-20T13:05:41;16.05;;;3.83;;
59273;SDS011;45044;41.572;24.730;2022-11-20T13:08:25;12.77;;;4.05;;
59273;SDS011;45044;41.572;24.730;2022-11-20T13:11:05;14.55;;;3.55;;
59273;SDS011;45044;41.572;24.730;2022-11-20T13:13:46;13.85;;;3.90;;
59273;SDS011;45044;41.572;24.730;2022-11-20T13:19:35;14.27;;;2.88;;
59273;SDS011;45044;41.572;24.730;2022-11-20T13:22:02;15.32;;;5.55;;
59273;SDS011;45044;41.572;24.730;2022-11-20T13:24:30;13.70;;;4.65;;
59273;SDS011;45044;41.572;24.730;2022-11-20T13:29:29;18.50;;;7.18;;
59273;SDS011;45044;41.572;24.730;2022-11-20T13:34:34;18.38;;;3.70;;
59273;SDS011;45044;41.572;24.730;2022-11-20T13:37:03;14.15;;;3.67;;
59273;SDS011;45044;41.572;24.730;2022-11-20T13:39:33;19.67;;;5.13;;
59273;SDS011;45044;41.572;24.730;2022-11-20T13:44:38;17.75;;;6.65;;
59273;SDS011;45044;41.572;24.730;2022-11-20T13:47:21;12.52;;;3.47;;
59273;SDS011;45044;41.572;24.730;2022-11-20T13:49:50;12.38;;;3.95;;
59273;SDS011;45044;41.572;24.730;2022-11-20T14:01:24;17.50;;;5.85;;
59273;SDS011;45044;41.572;24.730;2022-11-20T14:03:57;18.10;;;8.65;;
59273;SDS011;45044;41.572;24.730;2022-11-20T14:06:32;21.80;;;10.40;;
59273;SDS011;45044;41.572;24.730;2022-11-20T14:09:04;16.17;;;4.45;;
59273;SDS011;45044;41.572;24.730;2022-11-20T14:11:31;12.60;;;3.47;;
59273;SDS011;45044;41.572;24.730;2022-11-20T14:14:10;15.85;;;5.78;;
59273;SDS011;45044;41.572;24.730;2022-11-20T14:16:41;14.50;;;3.67;;
59273;SDS011;45044;41.572;24.730;2022-11-20T14:21:42;19.15;;;9.10;;
59273;SDS011;45044;41.572;24.730;2022-11-20T14:24:10;20.20;;;8.13;;
59273;SDS011;45044;41.572;24.730;2022-11-20T14:26:45;15.63;;;6.28;;
59273;SDS011;45044;41.572;24.730;2022-11-20T14:29:15;14.45;;;5.22;;
59273;SDS011;45044;41.572;24.730;2022-11-20T14:31:44;11.70;;;3.45;;
59273;SDS011;45044;41.572;24.730;2022-11-20T14:34:20;12.73;;;3.40;;
59273;SDS011;45044;41.572;24.730;2022-11-20T14:36:52;11.00;;;3.08;;
59273;SDS011;45044;41.572;24.730;2022-11-20T14:39:36;11.73;;;3.80;;
59273;SDS011;45044;41.572;24.730;2022-11-20T14:42:22;12.95;;;4.05;;
59273;SDS011;45044;41.572;24.730;2022-11-20T14:44:57;10.30;;;3.22;;
59273;SDS011;45044;41.572;24.730;2022-11-20T14:47:26;12.23;;;4.45;;
59273;SDS011;45044;41.572;24.730;2022-11-20T14:49:55;12.27;;;4.88;;
59273;SDS011;45044;41.572;24.730;2022-11-20T14:52:25;14.82;;;5.95;;
59273;SDS011;45044;41.572;24.730;2022-11-20T14:54:55;24.17;;;12.60;;
59273;SDS011;45044;41.572;24.730;2022-11-20T15:02:43;22.63;;;14.73;;
59273;SDS011;45044;41.572;24.730;2022-11-20T15:05:12;23.35;;;14.98;;
59273;SDS011;45044;41.572;24.730;2022-11-20T15:07:40;21.05;;;15.20;;
59273;SDS011;45044;41.572;24.730;2022-11-20T15:15:24;31.90;;;21.75;;
59273;SDS011;45044;41.572;24.730;2022-11-20T15:17:56;11.00;;;6.93;;
59273;SDS011;45044;41.572;24.730;2022-11-20T15:20:25;12.07;;;7.60;;
59273;SDS011;45044;41.572;24.730;2022-11-20T15:22:54;19.17;;;12.40;;
59273;SDS011;45044;41.572;24.730;2022-11-20T15:25:21;51.92;;;39.65;;
59273;SDS011;45044;41.572;24.730;2022-11-20T15:27:54;22.95;;;15.23;;
59273;SDS011;45044;41.572;24.730;2022-11-20T15:30:23;28.83;;;20.60;;
59273;SDS011;45044;41.572;24.730;2022-11-20T15:32:50;24.55;;;17.83;;
59273;SDS011;45044;41.572;24.730;2022-11-20T15:35:17;23.80;;;17.55;;
59273;SDS011;45044;41.572;24.730;2022-11-20T15:37:44;29.45;;;20.80;;
59273;SDS011;45044;41.572;24.730;2022-11-20T15:40:11;31.80;;;22.88;;
59273;SDS011;45044;41.572;24.730;2022-11-20T15:42:38;42.65;;;33.45;;
59273;SDS011;45044;41.572;24.730;2022-11-20T15:45:25;20.17;;;15.60;;
59273;SDS011;45044;41.572;24.730;2022-11-20T15:47:54;54.28;;;39.22;;
59273;SDS011;45044;41.572;24.730;2022-11-20T15:50:21;47.03;;;35.25;;
59273;SDS011;45044;41.572;24.730;2022-11-20T15:52:52;25.92;;;19.15;;
59273;SDS011;45044;41.572;24.730;2022-11-20T15:55:18;19.05;;;14.65;;
59273;SDS011;45044;41.572;24.730;2022-11-20T15:57:45;32.95;;;23.63;;
59273;SDS011;45044;41.572;24.730;2022-11-20T16:00:12;23.10;;;17.88;;
59273;SDS011;45044;41.572;24.730;2022-11-20T16:02:43;16.10;;;11.60;;
59273;SDS011;45044;41.572;24.730;2022-11-20T16:05:10;27.73;;;20.95;;
59273;SDS011;45044;41.572;24.730;2022-11-20T16:07:38;28.23;;;20.00;;
59273;SDS011;45044;41.572;24.730;2022-11-20T16:10:05;27.58;;;22.67;;
59273;SDS011;45044;41.572;24.730;2022-11-20T16:12:32;36.22;;;30.15;;
59273;SDS011;45044;41.572;24.730;2022-11-20T16:15:17;39.35;;;30.08;;
59273;SDS011;45044;41.572;24.730;2022-11-20T16:18:03;39.95;;;34.13;;
59273;SDS011;45044;41.572;24.730;2022-11-20T16:20:30;39.58;;;31.20;;
59273;SDS011;45044;41.572;24.730;2022-11-20T16:22:56;39.00;;;28.50;;
59273;SDS011;45044;41.572;24.730;2022-11-20T16:25:23;65.20;;;39.25;;
59273;SDS011;45044;41.572;24.730;2022-11-20T16:27:50;14.50;;;9.30;;
59273;SDS011;45044;41.572;24.730;2022-11-20T16:30:16;14.95;;;9.32;;
59273;SDS011;45044;41.572;24.730;2022-11-20T16:32:43;30.20;;;24.48;;
59273;SDS011;45044;41.572;24.730;2022-11-20T16:35:10;26.73;;;20.90;;
59273;SDS011;45044;41.572;24.730;2022-11-20T16:37:37;32.35;;;25.98;;
59273;SDS011;45044;41.572;24.730;2022-11-20T16:40:05;36.05;;;29.33;;
59273;SDS011;45044;41.572;24.730;2022-11-20T16:42:33;42.00;;;30.60;;
59273;SDS011;45044;41.572;24.730;2022-11-20T16:45:00;32.45;;;26.83;;
59273;SDS011;45044;41.572;24.730;2022-11-20T16:47:27;37.78;;;29.92;;
59273;SDS011;45044;41.572;24.730;2022-11-20T16:49:54;24.40;;;20.15;;
59273;SDS011;45044;41.572;24.730;2022-11-20T16:52:21;28.52;;;23.02;;
59273;SDS011;45044;41.572;24.730;2022-11-20T16:54:47;30.80;;;25.25;;
59273;SDS011;45044;41.572;24.730;2022-11-20T16:57:14;34.53;;;27.50;;
59273;SDS011;45044;41.572;24.730;2022-11-20T16:59:41;50.10;;;39.65;;
59273;SDS011;45044;41.572;24.730;2022-11-20T17:02:08;52.20;;;36.67;;
59273;SDS011;45044;41.572;24.730;2022-11-20T17:04:36;33.50;;;21.17;;